Time;durP1;ratioP1;P1;durP2;ratioP2;P2;SDS_P1;SDS_P2;PMS_P1;PMS_P2;Temp;Humidity;BMP_temperature;BMP_pressure;BME280_temperature;BME280_humidity;BME280_pressure;Samples;Min_cycle;Max_cycle;Signal;HPM_P1;HPM_P2
2022/10/05 00:00:44;;;;;;;12.80;8.85;;;;;;;13.81;100.00;101512.25;1970484;28;20038;-69
2022/10/05 00:01:43;;;;;;;15.25;8.23;;;;;;;13.78;100.00;101510.63;1970583;28;20077;-74
2022/10/05 00:02:41;;;;;;;9.52;8.15;;;;;;;13.79;100.00;101509.69;1970495;28;20050;-71
2022/10/05 00:03:40;;;;;;;11.45;8.80;;;;;;;13.81;100.00;101510.47;1970635;28;20041;-74
2022/10/05 00:04:37;;;;;;;11.38;8.25;;;;;;;13.75;100.00;101505.50;1970544;28;20113;-70
2022/10/05 00:05:34;;;;;;;10.45;8.27;;;;;;;13.75;100.00;101505.50;1970641;28;20108;-77
2022/10/05 00:06:32;;;;;;;10.82;8.07;;;;;;;13.74;100.00;101501.19;1970651;28;20076;-76
2022/10/05 00:07:29;;;;;;;9.93;8.30;;;;;;;13.78;100.00;101500.13;1970628;28;20394;-72
2022/10/05 00:08:32;;;;;;;10.30;8.35;;;;;;;13.80;100.00;101500.91;1970531;28;20116;-76
2022/10/05 00:09:31;;;;;;;11.18;8.02;;;;;;;13.72;100.00;101505.66;1970679;28;20516;-74
2022/10/05 00:10:29;;;;;;;12.52;8.57;;;;;;;13.73;100.00;101505.59;1970570;28;20088;-78
2022/10/05 00:11:26;;;;;;;12.23;8.40;;;;;;;13.75;100.00;101508.13;1970512;28;20485;-72
2022/10/05 00:12:28;;;;;;;11.13;8.02;;;;;;;13.70;100.00;101504.88;1970636;28;20045;-73
2022/10/05 00:13:29;;;;;;;10.45;8.02;;;;;;;13.72;100.00;101497.81;1970445;28;20421;-75
2022/10/05 00:14:31;;;;;;;11.80;8.65;;;;;;;13.67;100.00;101502.38;1962342;28;20106;-79
2022/10/05 00:15:29;;;;;;;12.95;8.80;;;;;;;13.70;100.00;101500.50;1962280;28;20049;-72
2022/10/05 00:16:28;;;;;;;11.00;8.48;;;;;;;13.69;100.00;101501.38;1970340;28;20385;-78
2022/10/05 00:17:28;;;;;;;10.82;8.45;;;;;;;13.69;100.00;101492.69;1968339;28;20211;-74
2022/10/05 00:18:26;;;;;;;14.57;8.52;;;;;;;13.68;100.00;101496.25;1970522;28;20059;-69
2022/10/05 00:19:43;;;;;;;11.65;8.73;;;;;;;13.69;100.00;101498.75;1970408;28;20040;-72
2022/10/05 00:20:41;;;;;;;11.45;8.25;;;;;;;13.61;100.00;101501.75;1970548;28;20044;-80
2022/10/05 00:21:38;;;;;;;10.00;8.43;;;;;;;13.65;100.00;101498.06;1970591;28;20085;-77
2022/10/05 00:22:36;;;;;;;13.60;8.13;;;;;;;13.64;100.00;101498.13;1970517;28;20473;-72
2022/10/05 00:23:33;;;;;;;14.27;8.80;;;;;;;13.65;100.00;101498.06;1970333;28;20116;-83
2022/10/05 00:24:30;;;;;;;10.55;8.48;;;;;;;13.63;100.00;101493.81;1970546;28;20124;-65
2022/10/05 00:25:28;;;;;;;12.43;8.52;;;;;;;13.67;100.00;101490.13;1970362;28;20467;-67
2022/10/05 00:26:31;;;;;;;11.43;8.27;;;;;;;13.62;100.00;101487.72;1970393;28;20488;-68
2022/10/05 00:27:36;;;;;;;10.00;8.05;;;;;;;13.66;100.00;101483.19;1970363;28;20098;-65
2022/10/05 00:28:33;;;;;;;12.43;8.45;;;;;;;13.64;100.00;101480.63;1970461;28;20537;-68
2022/10/05 00:29:33;;;;;;;10.30;8.38;;;;;;;13.63;100.00;101481.56;1970226;28;20049;-68
2022/10/05 00:30:32;;;;;;;8.73;7.60;;;;;;;13.59;100.00;101482.59;1970582;28;20038;-74
2022/10/05 00:31:34;;;;;;;11.35;8.10;;;;;;;13.61;100.00;101479.91;1962023;28;20121;-74
2022/10/05 00:32:31;;;;;;;9.50;8.45;;;;;;;13.60;100.00;101483.44;1962281;28;20618;-78
2022/10/05 00:33:29;;;;;;;11.93;8.40;;;;;;;13.62;100.00;101486.88;1970370;28;20040;-79
2022/10/05 00:34:26;;;;;;;11.27;8.32;;;;;;;13.63;100.00;101488.56;1970379;28;20136;-77
2022/10/05 00:35:24;;;;;;;9.38;8.27;;;;;;;13.68;100.00;101491.81;1970462;28;20052;-75
2022/10/05 00:36:24;;;;;;;11.23;8.05;;;;;;;13.59;100.00;101489.63;1970416;28;20034;-72
2022/10/05 00:37:22;;;;;;;12.82;8.38;;;;;;;13.60;100.00;101486.94;1970330;28;20087;-71
2022/10/05 00:38:20;;;;;;;11.68;8.57;;;;;;;13.61;100.00;101486.00;1970397;28;20092;-76
2022/10/05 00:39:17;;;;;;;12.07;8.75;;;;;;;13.57;100.00;101484.44;1970257;28;20502;-74
2022/10/05 00:40:34;;;;;;;11.20;8.57;;;;;;;13.62;100.00;101487.72;1970268;28;20037;-71
2022/10/05 00:41:49;;;;;;;10.18;8.35;;;;;;;13.56;100.00;101482.75;1970346;28;20164;-71
2022/10/05 00:43:13;;;;;;;11.93;8.30;;;;;;;13.58;100.00;101482.69;1970227;28;20042;-72
2022/10/05 00:44:32;;;;;;;8.95;8.05;;;;;;;13.55;100.00;101475.78;1970280;28;20042;-74
2022/10/05 00:45:47;;;;;;;10.65;7.90;;;;;;;13.51;100.00;101484.72;1970312;28;20044;-75
2022/10/05 00:46:50;;;;;;;13.52;8.20;;;;;;;13.49;100.00;101482.16;1970315;28;20073;-78
2022/10/05 00:48:28;;;;;;;19.10;9.00;;;;;;;13.54;100.00;101484.59;1967998;28;20404;-78
2022/10/05 00:49:53;;;;;;;13.18;8.57;;;;;;;13.52;100.00;101486.44;1961634;28;20047;-71
2022/10/05 00:51:16;;;;;;;11.73;8.13;;;;;;;13.54;100.00;101479.34;1961859;28;20486;-74
2022/10/05 00:52:52;;;;;;;10.73;8.57;;;;;;;13.47;100.00;101480.50;1964733;28;20038;-77
2022/10/05 00:54:14;;;;;;;9.23;7.50;;;;;;;13.44;100.00;101491.97;1970179;28;20026;-78
2022/10/05 00:55:29;;;;;;;11.43;8.40;;;;;;;13.45;100.00;101495.47;1970501;28;20130;-86
2022/10/05 00:57:16;;;;;;;10.65;8.65;;;;;;;13.46;100.00;101484.91;1970321;28;20048;-76
2022/10/05 00:58:37;;;;;;;10.23;8.15;;;;;;;13.44;100.00;101488.53;1970326;28;20065;-74
2022/10/05 00:59:38;;;;;;;;;;;;;;;13.35;100.00;101482.72;1970729;28;20037;-79
2022/10/05 01:01:04;;;;;;;9.57;8.27;;;;;;;13.41;100.00;101483.41;1970305;28;19933;-75
2022/10/05 01:02:21;;;;;;;13.70;9.20;;;;;;;13.42;100.00;101480.72;1970213;28;20033;-75
2022/10/05 01:03:59;;;;;;;10.32;8.18;;;;;;;13.42;100.00;101477.22;1970147;28;20478;-73
2022/10/05 01:05:19;;;;;;;11.73;8.15;;;;;;;13.37;100.00;101478.28;1966150;28;20038;-77
2022/10/05 01:06:29;;;;;;;12.30;8.35;;;;;;;13.37;100.00;101473.03;1970337;28;20033;-81
2022/10/05 01:07:35;;;;;;;11.02;8.25;;;;;;;13.35;100.00;101479.28;1961743;28;20042;-70
2022/10/05 01:09:21;;;;;;;10.70;8.73;;;;;;;13.35;100.00;101474.88;1962107;28;20057;-77
2022/10/05 01:10:30;;;;;;;10.82;7.95;;;;;;;13.37;100.00;101474.81;1970310;28;20032;-73
2022/10/05 01:11:55;;;;;;;12.00;8.38;;;;;;;13.36;100.00;101465.25;1961657;28;20597;-78
2022/10/05 01:13:40;;;;;;;10.68;7.90;;;;;;;13.35;100.00;101474.88;1956896;28;20190;-78
2022/10/05 01:15:10;;;;;;;11.52;8.05;;;;;;;13.34;100.00;101472.34;1959624;28;20093;-81
2022/10/05 01:16:40;;;;;;;14.43;9.10;;;;;;;13.36;100.00;101471.34;1965608;28;20132;-75
2022/10/05 01:18:09;;;;;;;9.20;7.90;;;;;;;13.34;100.00;101462.69;1967903;28;20082;-65
2022/10/05 01:19:41;;;;;;;13.40;8.02;;;;;;;13.33;100.00;101455.75;1970095;28;20124;-67
2022/10/05 01:20:51;;;;;;;14.80;8.60;;;;;;;13.32;100.00;101458.44;1970055;28;20427;-66
2022/10/05 01:22:05;;;;;;;12.23;8.75;;;;;;;13.36;100.00;101450.38;1970038;28;20392;-66
2022/10/05 01:23:43;;;;;;;10.30;8.23;;;;;;;13.28;100.00;101452.50;1970112;28;20042;-66
2022/10/05 01:25:06;;;;;;;11.98;8.20;;;;;;;13.27;100.00;101450.78;1961707;28;20038;-68
2022/10/05 01:26:37;;;;;;;11.02;8.18;;;;;;;13.27;100.00;101445.53;1964492;28;20498;-70
2022/10/05 01:27:50;;;;;;;11.38;8.52;;;;;;;13.27;100.00;101450.78;1970045;28;20605;-66
2022/10/05 01:29:00;;;;;;;10.63;8.20;;;;;;;13.29;100.00;101453.31;1969863;28;20044;-69
2022/10/05 01:30:12;;;;;;;16.08;9.32;;;;;;;13.32;100.00;101453.19;1969968;28;20033;-69
2022/10/05 01:31:24;;;;;;;11.15;8.88;;;;;;;13.30;100.00;101450.63;1969893;28;20135;-65
2022/10/05 01:32:38;;;;;;;10.80;8.73;;;;;;;13.25;100.00;101442.97;1969950;28;20069;-64
2022/10/05 01:33:50;;;;;;;10.82;9.10;;;;;;;13.27;100.00;101442.91;1970041;28;20066;-65
2022/10/05 01:35:06;;;;;;;13.27;9.70;;;;;;;13.22;100.00;101445.75;1969924;28;20465;-66
2022/10/05 01:36:54;;;;;;;10.45;8.32;;;;;;;13.23;100.00;101449.22;1969940;28;20099;-81
2022/10/05 01:38:14;;;;;;;10.85;8.68;;;;;;;13.23;100.00;101443.97;1969903;28;20041;-69
2022/10/05 01:39:31;;;;;;;11.15;8.90;;;;;;;13.25;100.00;101448.22;1970008;28;20103;-74
2022/10/05 01:41:04;;;;;;;10.27;8.70;;;;;;;13.27;100.00;101445.53;1962760;28;20046;-81
2022/10/05 01:42:25;;;;;;;14.23;8.85;;;;;;;13.25;100.00;101442.97;1970048;28;20466;-74
2022/10/05 01:43:44;;;;;;;10.77;9.15;;;;;;;13.25;100.00;101437.72;1970167;28;20522;-76
2022/10/05 01:44:59;;;;;;;13.30;9.20;;;;;;;13.24;100.00;101440.44;1970142;28;20084;-73
2022/10/05 01:46:16;;;;;;;14.82;9.43;;;;;;;13.24;100.00;101441.28;1969879;28;20036;-76
2022/10/05 01:47:31;;;;;;;10.82;9.27;;;;;;;13.25;100.00;101439.53;1968032;28;20050;-79
2022/10/05 01:48:53;;;;;;;11.18;8.77;;;;;;;13.20;100.00;101431.00;1969837;28;20034;-73
2022/10/05 01:50:11;;;;;;;11.38;8.45;;;;;;;13.18;100.00;101436.31;1970021;28;20040;-72
2022/10/05 01:51:35;;;;;;;11.13;8.85;;;;;;;13.22;100.00;101437.03;1969985;28;20421;-78
2022/10/05 01:53:01;;;;;;;10.70;9.10;;;;;;;13.25;100.00;101439.53;1970066;28;20678;-71
2022/10/05 01:54:23;;;;;;;11.32;9.75;;;;;;;13.20;100.00;101433.63;1969982;28;20354;-74
2022/10/05 01:55:39;;;;;;;12.73;8.43;;;;;;;13.23;100.00;101433.47;1970059;28;20046;-85
2022/10/05 01:57:14;;;;;;;9.70;8.60;;;;;;;13.21;100.00;101430.09;1969932;28;20160;-77
2022/10/05 01:58:27;;;;;;;10.90;8.60;;;;;;;13.21;100.00;101430.09;1970117;28;20084;-69
2022/10/05 01:59:27;;;;;;;12.60;9.15;;;;;;;13.19;100.00;101418.81;1970000;28;20034;-77
2022/10/05 02:00:27;;;;;;;9.88;8.55;;;;;;;13.19;100.00;101421.44;1970009;28;20100;-79
2022/10/05 02:02:07;;;;;;;13.18;8.63;;;;;;;13.19;100.00;101416.19;1969888;28;20500;-82
2022/10/05 02:03:23;;;;;;;14.05;8.48;;;;;;;13.16;100.00;101421.56;1970169;28;20054;-75
2022/10/05 02:04:34;;;;;;;14.27;9.35;;;;;;;13.20;100.00;101418.75;1970086;28;20039;-81
2022/10/05 02:05:59;;;;;;;10.57;8.32;;;;;;;13.17;100.00;101407.56;1969992;28;20037;-71
2022/10/05 02:07:00;;;;;;;10.70;9.18;;;;;;;13.22;100.00;101416.06;1969953;28;20112;-80
2022/10/05 02:08:07;;;;;;;10.95;8.82;;;;;;;13.24;100.00;101419.47;1969882;28;20097;-76
2022/10/05 02:09:19;;;;;;;13.75;9.35;;;;;;;13.23;100.00;101410.75;1969923;28;20394;-71
2022/10/05 02:10:29;;;;;;;11.32;9.25;;;;;;;13.25;100.00;101415.94;1969988;28;20066;-82
2022/10/05 02:11:27;;;;;;;12.48;8.70;;;;;;;13.17;100.00;101407.56;1969972;28;20048;-73
2022/10/05 02:12:33;;;;;;;14.93;9.10;;;;;;;13.17;100.00;101411.00;1969819;28;20044;-73
2022/10/05 02:13:49;;;;;;;14.13;9.00;;;;;;;13.14;100.00;101414.63;1969900;28;20126;-72
2022/10/05 02:14:53;;;;;;;13.07;8.82;;;;;;;13.19;100.00;101406.56;1969929;28;20038;-73
2022/10/05 02:16:03;;;;;;;12.77;9.02;;;;;;;13.20;100.00;101399.53;1969833;28;20121;-73
2022/10/05 02:17:12;;;;;;;12.50;9.07;;;;;;;13.14;100.00;101404.16;1970119;28;20048;-74
2022/10/05 02:18:18;;;;;;;12.13;8.77;;;;;;;13.18;100.00;101398.78;1961243;28;20041;-74
2022/10/05 02:19:29;;;;;;;15.13;9.18;;;;;;;13.17;100.00;101395.28;1961950;28;20533;-79
2022/10/05 02:20:31;;;;;;;10.80;8.90;;;;;;;13.18;100.00;101404.00;1969859;28;20065;-68
2022/10/05 02:21:33;;;;;;;13.38;8.82;;;;;;;13.16;100.00;101400.59;1969981;28;20034;-64
2022/10/05 02:22:41;;;;;;;13.07;9.40;;;;;;;13.17;100.00;101402.31;1969771;28;20108;-66
2022/10/05 02:23:41;;;;;;;10.32;9.15;;;;;;;13.17;100.00;101397.09;1971196;28;20482;-65
2022/10/05 02:25:02;;;;;;;10.65;8.93;;;;;;;13.16;100.00;101400.59;1962778;28;20034;-68
2022/10/05 02:26:01;;;;;;;13.57;9.13;;;;;;;13.13;100.00;101401.59;1965485;28;20123;-64
2022/10/05 02:27:02;;;;;;;11.23;8.60;;;;;;;13.18;100.00;101398.78;1971224;28;20092;-65
2022/10/05 02:28:13;;;;;;;10.25;8.82;;;;;;;13.19;100.00;101400.47;1971393;28;20485;-65
2022/10/05 02:29:15;;;;;;;12.25;8.60;;;;;;;13.17;100.00;101397.91;1971281;28;20033;-64
2022/10/05 02:30:16;;;;;;;10.88;8.60;;;;;;;13.18;100.00;101396.16;1971312;28;20066;-65
2022/10/05 02:31:25;;;;;;;13.20;8.43;;;;;;;13.17;100.00;101386.59;1971165;28;20038;-63
2022/10/05 02:32:27;;;;;;;11.38;8.93;;;;;;;13.19;100.00;101384.75;1971150;28;20052;-64
2022/10/05 02:33:31;;;;;;;13.07;9.18;;;;;;;13.21;100.00;101382.91;1971255;28;20044;-66
2022/10/05 02:34:39;;;;;;;13.55;9.25;;;;;;;13.16;100.00;101390.13;1971042;28;20195;-69
2022/10/05 02:35:37;;;;;;;13.43;9.50;;;;;;;13.21;100.00;101388.16;1971292;28;20521;-63
2022/10/05 02:36:36;;;;;;;12.63;8.80;;;;;;;13.23;100.00;101381.06;1971100;28;20044;-66
2022/10/05 02:38:13;;;;;;;12.15;8.27;;;;;;;13.18;100.00;101383.91;1971231;28;20041;-68
2022/10/05 02:39:28;;;;;;;12.07;9.23;;;;;;;13.17;100.00;101382.19;1965356;28;20052;-68
2022/10/05 02:40:56;;;;;;;10.65;8.07;;;;;;;13.18;100.00;101372.56;1962850;28;20097;-65
2022/10/05 02:42:13;;;;;;;11.73;8.35;;;;;;;13.18;100.00;101372.56;1966373;28;20494;-65
2022/10/05 02:43:31;;;;;;;10.40;8.77;;;;;;;13.20;100.00;101368.09;1970988;28;20128;-66
2022/10/05 02:45:10;;;;;;;11.88;8.48;;;;;;;13.16;100.00;101366.53;1971363;28;20042;-76
2022/10/05 02:46:49;;;;;;;12.40;9.27;;;;;;;13.17;100.00;101368.25;1971356;28;20099;-77
2022/10/05 02:48:05;;;;;;;9.40;8.25;;;;;;;13.16;100.00;101358.66;1969112;28;20045;-78
2022/10/05 02:49:46;;;;;;;14.18;8.10;;;;;;;13.14;100.00;101356.16;1971017;28;20025;-73
2022/10/05 02:50:57;;;;;;;11.52;8.27;;;;;;;13.13;100.00;101360.53;1971293;28;20378;-70
2022/10/05 02:52:23;;;;;;;10.88;8.27;;;;;;;13.17;100.00;101363.00;1971383;28;20045;-77
2022/10/05 02:53:34;;;;;;;12.13;8.25;;;;;;;13.17;100.00;101361.22;1971229;28;20119;-70
2022/10/05 02:55:09;;;;;;;10.23;8.43;;;;;;;13.15;100.00;101357.84;1971371;28;20049;-82
2022/10/05 02:56:38;;;;;;;13.52;8.13;;;;;;;13.18;100.00;101356.84;1962820;28;20076;-73
2022/10/05 02:57:45;;;;;;;9.98;7.93;;;;;;;13.13;100.00;101354.44;1958329;28;20783;-75
2022/10/05 02:59:05;;;;;;;11.80;8.55;;;;;;;13.11;100.00;101351.03;1962540;28;20130;-77
2022/10/05 03:00:16;;;;;;;11.43;8.25;;;;;;;13.11;100.00;101356.28;1971244;28;20038;-77
2022/10/05 03:01:29;;;;;;;10.63;8.00;;;;;;;13.10;100.00;101360.66;1971155;28;20046;-73
2022/10/05 03:03:00;;;;;;;11.75;8.80;;;;;;;13.08;100.00;101365.13;1962932;28;20030;-69
2022/10/05 03:04:35;;;;;;;12.32;8.75;;;;;;;13.12;100.00;101357.97;1966681;28;20071;-75
2022/10/05 03:05:45;;;;;;;10.75;8.32;;;;;;;13.08;100.00;101349.41;1971229;28;20524;-73
2022/10/05 03:07:10;;;;;;;15.07;8.88;;;;;;;13.08;100.00;101349.41;1970967;28;20121;-64
2022/10/05 03:08:23;;;;;;;12.55;8.65;;;;;;;13.03;100.00;101347.91;1970932;28;20059;-67
2022/10/05 03:09:28;;;;;;;10.15;8.85;;;;;;;13.03;100.00;101346.13;1970965;28;20397;-65
2022/10/05 03:10:51;;;;;;;10.98;8.77;;;;;;;13.08;100.00;101341.56;1970961;28;20377;-64
2022/10/05 03:12:11;;;;;;;17.20;9.00;;;;;;;13.05;100.00;101340.81;1971041;28;20037;-64
2022/10/05 03:13:50;;;;;;;9.77;8.43;;;;;;;13.00;100.00;101338.41;1970751;28;20042;-64
2022/10/05 03:15:14;;;;;;;12.10;8.40;;;;;;;12.97;100.00;101335.94;1967079;28;20048;-69
2022/10/05 03:17:02;;;;;;;11.50;8.77;;;;;;;12.98;100.00;101340.25;1970949;28;20037;-66
2022/10/05 03:18:23;;;;;;;10.43;8.40;;;;;;;12.91;100.00;101338.81;1968760;28;20045;-64
2022/10/05 03:20:14;;;;;;;11.55;8.68;;;;;;;12.90;100.00;101334.50;1970903;28;20490;-68
2022/10/05 03:21:41;;;;;;;12.10;9.00;;;;;;;12.89;100.00;101338.88;1970797;28;20045;-66
2022/10/05 03:23:01;;;;;;;12.70;9.00;;;;;;;12.90;100.00;101334.50;1970886;28;20375;-66
2022/10/05 03:24:30;;;;;;;11.20;8.90;;;;;;;12.88;100.00;101332.81;1970834;28;20044;-64
2022/10/05 03:25:46;;;;;;;11.50;9.00;;;;;;;12.88;100.00;101340.66;1970527;28;20048;-64
2022/10/05 03:27:02;;;;;;;11.52;8.68;;;;;;;12.95;100.00;101340.38;1970548;28;20046;-66
2022/10/05 03:28:23;;;;;;;15.23;9.18;;;;;;;12.94;100.00;101341.31;1970612;28;20038;-69
2022/10/05 03:29:59;;;;;;;13.70;8.95;;;;;;;12.90;100.00;101337.13;1962174;28;20034;-64
2022/10/05 03:31:10;;;;;;;10.27;8.55;;;;;;;12.90;100.00;101342.38;1966826;28;20037;-66
2022/10/05 03:32:53;;;;;;;13.43;9.40;;;;;;;12.93;100.00;101331.75;1970502;28;20037;-68
2022/10/05 03:34:39;;;;;;;12.63;8.77;;;;;;;12.86;100.00;101337.25;1968469;28;20033;-68
2022/10/05 03:35:56;;;;;;;12.15;9.27;;;;;;;12.87;100.00;101331.09;1970804;28;20040;-66
2022/10/05 03:37:03;;;;;;;12.32;9.50;;;;;;;12.88;100.00;101335.44;1970898;28;20064;-71
2022/10/05 03:38:16;;;;;;;15.60;9.25;;;;;;;12.87;100.00;101336.34;1971227;28;20109;-70
2022/10/05 03:39:37;;;;;;;13.48;9.23;;;;;;;12.87;100.00;101335.50;1971020;28;20049;-78
2022/10/05 03:40:52;;;;;;;11.52;9.27;;;;;;;12.92;100.00;101341.38;1963259;28;20038;-82
2022/10/05 03:42:19;;;;;;;11.35;8.88;;;;;;;12.87;100.00;101341.56;1963301;28;20034;-81
2022/10/05 03:43:43;;;;;;;13.60;9.18;;;;;;;12.88;100.00;101330.19;1970837;28;20472;-85
2022/10/05 03:45:26;;;;;;;12.77;9.75;;;;;;;12.90;100.00;101342.38;1970232;28;20042;-82
2022/10/05 03:47:06;;;;;;;13.82;9.43;;;;;;;12.87;100.00;101333.72;1970901;28;20395;-73
2022/10/05 03:48:20;;;;;;;13.27;9.10;;;;;;;12.85;100.00;101330.31;1969572;28;20129;-78
2022/10/05 03:49:56;;;;;;;16.15;9.80;;;;;;;12.85;100.00;101330.31;1970656;28;20029;-74
2022/10/05 03:51:07;;;;;;;13.52;9.77;;;;;;;12.88;100.00;101330.19;1970671;28;20044;-71
2022/10/05 03:52:37;;;;;;;13.10;9.90;;;;;;;12.86;100.00;101337.25;1970058;28;20034;-81
2022/10/05 03:53:46;;;;;;;16.73;9.65;;;;;;;12.86;100.00;101337.25;1971375;28;20050;-73
2022/10/05 03:55:05;;;;;;;14.63;9.88;;;;;;;12.87;100.00;101343.34;1971022;28;20386;-77
2022/10/05 03:56:18;;;;;;;13.30;10.23;;;;;;;12.87;100.00;101338.94;1970768;28;20093;-78
2022/10/05 03:57:30;;;;;;;15.98;10.98;;;;;;;12.86;100.00;101342.50;1970653;28;20032;-68
2022/10/05 03:59:11;;;;;;;15.32;10.27;;;;;;;12.87;100.00;101344.19;1970812;28;20046;-80
2022/10/05 04:00:22;;;;;;;13.10;9.98;;;;;;;12.87;100.00;101338.13;1970725;28;20029;-79
2022/10/05 04:01:28;;;;;;;11.95;9.73;;;;;;;12.84;100.00;101338.25;1970642;28;20044;-67
2022/10/05 04:02:39;;;;;;;16.33;9.40;;;;;;;12.86;100.00;101337.25;1970539;28;20183;-71
2022/10/05 04:03:51;;;;;;;;;;;;;;;12.83;100.00;101337.38;1971536;28;20057;-79
2022/10/05 04:05:28;;;;;;;14.88;9.77;;;;;;;12.83;100.00;101333.94;1970866;28;20000;-79
2022/10/05 04:06:34;;;;;;;13.63;9.98;;;;;;;12.83;100.00;101337.38;1970624;28;20043;-69
2022/10/05 04:08:10;;;;;;;12.23;9.50;;;;;;;12.85;100.00;101346.03;1970746;28;20075;-79
2022/10/05 04:09:26;;;;;;;12.48;9.82;;;;;;;12.82;100.00;101351.41;1970567;28;20528;-75
2022/10/05 04:10:38;;;;;;;15.13;9.60;;;;;;;12.82;100.00;101343.56;1970950;28;20049;-69
2022/10/05 04:12:04;;;;;;;17.20;9.70;;;;;;;12.83;100.00;101340.00;1970772;28;20038;-69
2022/10/05 04:13:28;;;;;;;13.40;10.20;;;;;;;12.88;100.00;101340.66;1970491;28;20038;-76
2022/10/05 04:14:44;;;;;;;13.50;10.02;;;;;;;12.91;100.00;101341.44;1970783;28;20049;-70
2022/10/05 04:15:51;;;;;;;12.80;9.00;;;;;;;12.87;100.00;101333.72;1970518;28;20411;-73
2022/10/05 04:17:01;;;;;;;12.65;9.77;;;;;;;12.86;100.00;101332.03;1970611;28;20469;-83
2022/10/05 04:18:06;;;;;;;;;;;;;;;12.84;100.00;101336.50;1968966;28;20033;-76
2022/10/05 04:19:24;;;;;;;14.25;10.15;;;;;;;12.84;100.00;101341.72;1970624;28;19920;-73
2022/10/05 04:20:32;;;;;;;9.98;8.18;;;;;;;12.84;100.00;101336.50;1970599;28;20520;-70
2022/10/05 04:21:45;;;;;;;16.25;10.18;;;;;;;12.87;100.00;101341.56;1970516;28;20041;-71
2022/10/05 04:23:01;;;;;;;15.20;9.68;;;;;;;12.87;100.00;101344.19;1970526;28;20046;-72
2022/10/05 04:24:10;;;;;;;12.25;9.40;;;;;;;12.85;100.00;101346.03;1970465;28;20112;-75
2022/10/05 04:25:22;;;;;;;16.08;10.13;;;;;;;12.85;100.00;101338.19;1970560;28;20038;-74
2022/10/05 04:26:36;;;;;;;14.57;10.35;;;;;;;12.87;100.00;101344.19;1970798;28;20041;-78
2022/10/05 04:27:42;;;;;;;12.63;9.80;;;;;;;12.88;100.00;101343.28;1970511;28;20045;-77
2022/10/05 04:29:04;;;;;;;12.88;10.20;;;;;;;12.89;100.00;101351.97;1970499;28;20129;-76
2022/10/05 04:30:07;;;;;;;11.85;10.25;;;;;;;12.88;100.00;101340.66;1970795;28;20041;-70
2022/10/05 04:31:15;;;;;;;14.25;10.55;;;;;;;12.91;100.00;101333.59;1970165;28;20069;-73
2022/10/05 04:32:42;;;;;;;16.25;10.52;;;;;;;12.92;100.00;101337.91;1970398;28;20048;-74
2022/10/05 04:33:50;;;;;;;12.18;10.02;;;;;;;12.93;100.00;101331.75;1970348;28;20382;-70
2022/10/05 04:35:09;;;;;;;13.98;9.80;;;;;;;12.94;100.00;101328.22;1970518;28;20029;-69
2022/10/05 04:36:28;;;;;;;12.93;10.02;;;;;;;12.97;100.00;101328.09;1970303;28;20046;-72
2022/10/05 04:37:48;;;;;;;14.43;9.63;;;;;;;12.98;100.00;101325.41;1970471;28;20560;-77
2022/10/05 04:39:35;;;;;;;14.63;9.65;;;;;;;12.97;100.00;101322.84;1970403;28;20037;-83
2022/10/05 04:41:00;;;;;;;12.10;9.30;;;;;;;12.99;100.00;101328.84;1970529;28;20073;-70
2022/10/05 04:42:09;;;;;;;15.52;9.20;;;;;;;12.99;100.00;101323.59;1970420;28;21095;-76
2022/10/05 04:43:28;;;;;;;14.40;9.63;;;;;;;13.02;100.00;101320.84;1969527;28;20081;-67
2022/10/05 04:44:43;;;;;;;12.48;9.15;;;;;;;13.04;100.00;101324.28;1969917;28;20389;-79
2022/10/05 04:46:03;;;;;;;13.52;9.95;;;;;;;13.01;100.00;101316.53;1970015;28;20529;-71
2022/10/05 04:47:27;;;;;;;12.13;9.25;;;;;;;13.02;100.00;101320.84;1970375;28;20139;-66
2022/10/05 04:48:49;;;;;;;12.05;8.63;;;;;;;13.06;100.00;101322.41;1970418;28;20083;-79
2022/10/05 04:50:11;;;;;;;10.38;8.23;;;;;;;13.04;100.00;101311.16;1970313;28;20044;-86
2022/10/05 04:51:41;;;;;;;16.15;9.10;;;;;;;13.04;100.00;101324.28;1970257;28;20119;-78
2022/10/05 04:53:32;;;;;;;11.48;8.88;;;;;;;13.07;100.00;101311.00;1969237;28;20473;-73
2022/10/05 04:54:38;;;;;;;12.02;7.80;;;;;;;13.10;100.00;101313.50;1959282;28;20041;-66
2022/10/05 04:55:58;;;;;;;8.63;7.60;;;;;;;13.13;100.00;101317.75;1969922;28;20045;-74
2022/10/05 04:57:01;;;;;;;9.45;7.22;;;;;;;13.13;100.00;101318.59;1975374;28;20044;-78
2022/10/05 04:58:30;;;;;;;13.50;7.72;;;;;;;13.14;100.00;101320.28;1970403;28;20113;-77
2022/10/05 05:00:03;;;;;;;11.60;8.02;;;;;;;13.17;100.00;101316.69;1969583;28;20037;-73
2022/10/05 05:01:48;;;;;;;9.85;7.32;;;;;;;13.16;100.00;101312.38;1969890;28;20029;-67
2022/10/05 05:03:23;;;;;;;9.00;7.20;;;;;;;13.19;100.00;101311.38;1966194;28;20057;-77
2022/10/05 05:04:38;;;;;;;7.45;6.63;;;;;;;13.18;100.00;101309.69;1970228;28;20029;-73
2022/10/05 05:06:06;;;;;;;8.70;7.10;;;;;;;13.23;100.00;101307.69;1970170;28;20490;-78
2022/10/05 05:07:36;;;;;;;10.45;6.97;;;;;;;13.21;100.00;101317.41;1970152;28;20182;-72
2022/10/05 05:09:01;;;;;;;;;;;;;;;13.22;100.00;101316.47;1970649;28;20042;-74
2022/10/05 05:10:43;;;;;;;7.60;6.10;;;;;;;13.22;100.00;101319.09;1970161;28;19916;-70
2022/10/05 05:12:42;;;;;;;8.13;6.40;;;;;;;13.23;100.00;101311.16;1970006;28;20038;-67
2022/10/05 05:14:05;;;;;;;11.60;6.38;;;;;;;13.19;100.00;101312.22;1970085;28;20044;-65
2022/10/05 05:15:21;;;;;;;8.77;6.35;;;;;;;13.21;100.00;101313.00;1970058;28;20029;-66
2022/10/05 05:16:34;;;;;;;8.07;6.20;;;;;;;13.16;100.00;101316.75;1970092;28;20033;-65
2022/10/05 05:17:31;;;;;;;7.22;6.30;;;;;;;13.20;100.00;101308.69;1967954;28;20034;-63
2022/10/05 05:18:38;;;;;;;8.35;6.75;;;;;;;13.18;100.00;101313.16;1970246;28;20037;-65
2022/10/05 05:19:44;;;;;;;7.20;6.50;;;;;;;13.20;100.00;101308.69;1969980;28;20038;-64
2022/10/05 05:21:21;;;;;;;8.73;6.72;;;;;;;13.14;100.00;101309.81;1970119;28;20099;-64
2022/10/05 05:22:39;;;;;;;9.82;6.72;;;;;;;13.08;100.00;101315.34;1970331;28;20038;-77
2022/10/05 05:23:53;;;;;;;8.15;6.45;;;;;;;13.07;100.00;101311.00;1970141;28;20049;-76
2022/10/05 05:25:29;;;;;;;9.48;7.30;;;;;;;13.10;100.00;101303.00;1970171;28;20060;-79
2022/10/05 05:26:42;;;;;;;7.88;6.85;;;;;;;13.07;100.00;101308.38;1970060;28;20049;-69
2022/10/05 05:27:53;;;;;;;10.75;7.10;;;;;;;13.08;100.00;101304.88;1969994;28;20042;-68
2022/10/05 05:29:04;;;;;;;9.45;6.57;;;;;;;13.07;100.00;101305.75;1970093;28;20096;-66
2022/10/05 05:30:19;;;;;;;11.38;7.55;;;;;;;13.08;100.00;101304.00;1970140;28;20037;-73
2022/10/05 05:31:31;;;;;;;9.50;7.05;;;;;;;13.09;100.00;101310.94;1970172;28;20029;-81
2022/10/05 05:32:53;;;;;;;9.27;6.72;;;;;;;13.04;100.00;101299.81;1970154;28;20372;-74
2022/10/05 05:34:07;;;;;;;13.38;7.55;;;;;;;13.07;100.00;101304.94;1970249;28;20088;-76
2022/10/05 05:35:30;;;;;;;7.85;7.05;;;;;;;13.09;100.00;101303.94;1969999;28;20026;-71
2022/10/05 05:37:07;;;;;;;8.07;6.57;;;;;;;13.04;100.00;101298.06;1969897;28;20436;-74
2022/10/05 05:38:39;;;;;;;9.73;6.50;;;;;;;13.07;100.00;101297.91;1970004;28;20050;-79
2022/10/05 05:40:07;;;;;;;9.02;7.05;;;;;;;13.06;100.00;101296.22;1969981;28;20543;-68
2022/10/05 05:41:12;;;;;;;9.45;6.25;;;;;;;13.04;100.00;101295.44;1969929;28;20102;-80
2022/10/05 05:42:30;;;;;;;12.40;7.10;;;;;;;13.08;100.00;101294.38;1969933;28;20070;-72
2022/10/05 05:44:19;;;;;;;8.18;6.55;;;;;;;13.10;100.00;101292.53;1969285;28;20053;-70
2022/10/05 05:45:32;;;;;;;8.93;6.38;;;;;;;13.05;100.00;101289.28;1957203;28;20107;-70
2022/10/05 05:46:38;;;;;;;9.27;6.28;;;;;;;13.08;100.00;101298.78;1969355;28;20058;-69
2022/10/05 05:47:43;;;;;;;8.90;6.18;;;;;;;13.08;100.00;101291.78;1967541;28;20041;-74
2022/10/05 05:48:46;;;;;;;8.80;6.13;;;;;;;13.11;100.00;101288.97;1970015;28;20068;-72